Home > Products > Valid Products > TAF

000
FTUS42 KFFC 200900 AAC
TAFATL
TAF AMD
KATL 200935Z 2010/2112 27004KT P6SM FEW007
      TEMPO 2011/2013 6SM BR BKN007
     FM201300 28005KT P6SM BKN020
     FM201500 30008KT P6SM SCT035
     FM201700 28010KT P6SM SCT045 PROB30 2020/2024 4SM -TSRA
      BKN030CB
     FM210200 28005KT P6SM FEW050
     FM210900 29004KT P6SM SCT012=



000
FTUS42 KFFC 200900 AAA
TAFMCN
TAF AMD
KMCN 200908Z 2009/2106 26003KT P6SM SCT250
     FM201000 26002KT 6SM BR SCT012
     FM201300 27004KT P6SM BKN020
     FM201500 29007KT P6SM SCT035
     FM201700 28009KT P6SM SCT045 PROB30 2018/2022 4SM -TSRA
      BKN030CB
     FM210200 27003KT P6SM SCT050=



000
FTUS42 KFFC 200900 AAA
TAFCSG
TAF AMD
KCSG 200908Z 2009/2106 26003KT P6SM SCT250
     FM201000 27002KT 6SM BR SCT015
     FM201300 28004KT P6SM BKN020
     FM201500 29007KT P6SM SCT035
     FM201700 28009KT P6SM SCT045 PROB30 2018/2022 4SM -TSRA
      BKN030CB
     FM210200 27003KT P6SM SCT050=



000
FTUS42 KFFC 200900 AAA
TAFAHN
TAF AMD
KAHN 200907Z 2009/2106 24003KT P6SM SCT250
     FM201000 25002KT 6SM BR SCT008
     FM201300 27004KT P6SM BKN020
     FM201500 29007KT P6SM SCT035
     FM201700 28009KT P6SM SCT045 PROB30 2018/2022 4SM -TSRA
      BKN030CB
     FM210200 28003KT P6SM FEW050=



000
FTUS42 KFFC 200900 AAA
TAFPDK
TAF AMD
KPDK 200906Z 2009/2106 26003KT 4SM BR SCT250
     FM201000 27002KT 4SM BR SCT008
     FM201300 28004KT P6SM BKN020
     FM201500 30007KT P6SM SCT035
     FM201700 28009KT P6SM SCT045 PROB30 2018/2022 4SM -TSRA
      BKN030CB
     FM210200 28003KT P6SM FEW050=



000
FTUS42 KFFC 200900 AAA
TAFRYY
TAF AMD
KRYY 200906Z 2009/2106 25003KT P6SM SCT250
     FM201000 26002KT 5SM BR SCT008
     FM201300 28004KT P6SM BKN020
     FM201500 29007KT P6SM SCT035
     FM201700 28009KT P6SM SCT045 PROB30 2018/2022 4SM -TSRA
      BKN030CB
     FM210200 28003KT P6SM FEW050
      AMD NOT SKED TIL 210200=



000
FTUS42 KFFC 200900 AAA
TAFFTY
TAF AMD
KFTY 200904Z 2009/2106 24004KT P6SM SCT250
     FM201000 26002KT 6SM BR SCT008
     FM201300 28004KT P6SM BKN020
     FM201500 30006KT P6SM SCT035
     FM201700 28008KT P6SM SCT045 PROB30 2018/2022 4SM -TSRA
      BKN030CB
     FM210200 28003KT P6SM FEW050=



000
FTUS42 KFFC 200900 AAB
TAFATL
TAF AMD
KATL 200903Z 2009/2112 27004KT P6SM SCT250
     FM201000 28004KT P6SM SCT008
      TEMPO 2010/2013 6SM BR BKN008
     FM201300 28005KT P6SM BKN020
     FM201500 30008KT P6SM SCT035
     FM201700 28010KT P6SM SCT045 PROB30 2018/2022 4SM -TSRA
      BKN030CB
     FM210200 28005KT P6SM FEW050
     FM210900 29004KT P6SM SCT012=



000
FTUS42 KFFC 200700 AAA
TAFATL
TAF AMD
KATL 200737Z 2008/2112 27004KT P6SM FEW009 BKN250
     FM200900 27004KT 6SM BR BKN008
     FM201300 28005KT P6SM BKN020
     FM201500 29008KT P6SM SCT035
     FM201700 28010KT P6SM SCT045 PROB30 2018/2022 4SM -TSRA
      BKN030CB
     FM210200 28005KT P6SM FEW050
     FM210900 29004KT P6SM SCT012=



000
FTUS42 KFFC 200500
TAFMCN
TAF
KMCN 200529Z 2006/2106 25004KT P6SM FEW009 BKN250
     FM200900 24002KT 5SM BR SCT015
     FM201200 26004KT P6SM BKN020
     FM201500 29007KT P6SM SCT035
     FM201700 28009KT P6SM SCT045 PROB30 2018/2022 4SM -TSRA
      BKN030CB
     FM210200 27003KT P6SM SCT050=



000
FTUS42 KFFC 200500
TAFFTY
TAF
KFTY 200529Z 2006/2106 23004KT P6SM FEW009 BKN250
     FM200900 24002KT 4SM BR BKN008
     FM201300 27004KT P6SM BKN020
     FM201500 29006KT P6SM SCT035
     FM201700 28008KT P6SM SCT045 PROB30 2018/2022 4SM -TSRA
      BKN030CB
     FM210200 28003KT P6SM FEW050=



000
FTUS42 KFFC 200500
TAFATL
TAF
KATL 200529Z 2006/2112 25004KT P6SM FEW009 BKN250
     FM200900 26004KT 6SM BR BKN008
     FM201300 27005KT P6SM BKN020
     FM201500 29008KT P6SM SCT035
     FM201700 28010KT P6SM SCT045 PROB30 2018/2022 4SM -TSRA
      BKN030CB
     FM210200 28005KT P6SM FEW050
     FM210900 29004KT P6SM SCT012=



000
FTUS42 KFFC 200500
TAFPDK
TAF
KPDK 200529Z 2006/2106 23003KT P6SM FEW009 BKN250
     FM200900 24002KT 4SM BR BKN008
     FM201300 27004KT P6SM BKN020
     FM201500 29007KT P6SM SCT035
     FM201700 28009KT P6SM SCT045 PROB30 2018/2022 4SM -TSRA
      BKN030CB
     FM210200 28003KT P6SM FEW050=



000
FTUS42 KFFC 200500
TAFRYY
TAF
KRYY 200529Z 2006/2106 23003KT P6SM FEW008 BKN250
     FM200900 24002KT 5SM BR BKN007
     FM201300 27004KT P6SM BKN020
     FM201500 29007KT P6SM SCT035
     FM201700 28009KT P6SM SCT045 PROB30 2018/2022 4SM -TSRA
      BKN030CB
     FM210200 28003KT P6SM FEW050
      AMD NOT SKED TIL 210200=



000
FTUS42 KFFC 200500
TAFAHN
TAF
KAHN 200529Z 2006/2106 23003KT P6SM BKN250
     FM200900 24002KT 4SM BR BKN008
     FM201300 27004KT P6SM BKN020
     FM201500 29007KT P6SM SCT035
     FM201700 28009KT P6SM SCT045 PROB30 2018/2022 4SM -TSRA
      BKN030CB
     FM210200 28003KT P6SM FEW050=



000
FTUS42 KFFC 200500
TAFCSG
TAF
KCSG 200529Z 2006/2106 23004KT P6SM FEW009 BKN250
     FM200900 24002KT 6SM BR SCT012
     FM201200 26004KT P6SM BKN020
     FM201500 29007KT P6SM SCT035
     FM201700 28009KT P6SM SCT045 PROB30 2018/2022 4SM -TSRA
      BKN030CB
     FM210200 27003KT P6SM SCT050=



000
FTUS42 KFFC 200300 AAB
TAFATL
TAF AMD
KATL 200355Z 2004/2106 25005KT P6SM BKN100
     FM200900 26004KT P6SM FEW015
     FM201400 28008KT P6SM SCT040
     FM201700 28010KT P6SM SCT045 PROB30 2018/2022 4SM -TSRA
      BKN030CB
     FM210200 29007KT P6SM SCT050=



000
FTUS42 KFFC 200100 AAA
TAFATL
TAF AMD
KATL 200157Z 2002/2106 VRB03KT P6SM FEW040 BKN100
     FM200900 26004KT P6SM FEW015
     FM201400 28008KT P6SM SCT040
     FM201700 28010KT P6SM SCT045 PROB30 2018/2022 4SM -TSRA
      BKN030CB
     FM210200 29007KT P6SM SCT050=



000
FTUS42 KFFC 200000 CCA
TAFCSG
TAF COR
KCSG 200006Z 2000/2024 24007KT P6SM SCT040 SCT080
     FM200700 VRB03KT 4SM BR SCT012
     FM201400 29007KT P6SM SCT040
     FM201700 28010KT P6SM SCT045 PROB30 2018/2022 4SM -TSRA
      BKN030CB=



000
FTUS42 KFFC 200000 CCA
TAFMCN
TAF COR
KMCN 200006Z 2000/2024 14005KT P6SM SCT025 BKN040
     FM200200 25005KT P6SM SCT040 SCT080
     FM200800 VRB03KT 3SM BR SCT012
     FM201400 29007KT P6SM SCT040
     FM201700 28010KT P6SM SCT045 PROB30 2018/2022 4SM -TSRA
      BKN030CB=



000
FTUS42 KFFC 200000 CCA
TAFAHN
TAF COR
KAHN 200005Z 2000/2024 25008KT P6SM SCT080
     FM200800 VRB03KT 3SM BR SCT015
     FM201400 29006KT P6SM SCT040
     FM201700 28010KT P6SM SCT045 PROB30 2018/2022 4SM -TSRA
      BKN030CB=



000
FTUS42 KFFC 200000 CCA
TAFRYY
TAF COR
KRYY 200004Z 2000/2024 34006KT P6SM SCT035 SCT080
     FM200200 VRB03KT P6SM SCT080
     FM200900 VRB03KT 3SM BR SCT015
     FM201400 29006KT P6SM SCT040
     FM201700 28010KT P6SM SCT045 PROB30 2018/2022 4SM -TSRA
      BKN030CB
      AMD NOT SKED 2004/2012=



000
FTUS42 KFFC 200000 CCA
TAFPDK
TAF COR
KPDK 200004Z 2000/2024 02006KT 6SM HZ SCT030 SCT080
     FM200200 VRB03KT P6SM SCT080
     FM200900 VRB03KT 3SM BR SCT015
     FM201400 29006KT P6SM SCT040
     FM201700 28010KT P6SM SCT045 PROB30 2018/2022 4SM -TSRA
      BKN030CB=



000
FTUS42 KFFC 200000 CCA
TAFATL
TAF COR
KATL 200002Z 2000/2106 29007KT P6SM SCT040 BKN100
     FM200200 28004KT P6SM SCT080 SCT250
     FM200900 26004KT P6SM FEW015
     FM201400 28008KT P6SM SCT040
     FM201700 28010KT P6SM SCT045 PROB30 2018/2022 4SM -TSRA
      BKN030CB
     FM210200 29007KT P6SM SCT050=



000
FTUS42 KFFC 200000 CCA
TAFFTY
TAF COR
KFTY 200002Z 2000/2024 02006KT P6SM SCT045
     FM200200 VRB03KT P6SM SCT080
     FM200900 VRB03KT 4SM BR SCT015
     FM201400 29006KT P6SM SCT040
     FM201700 28010KT P6SM SCT045 PROB30 2018/2022 4SM -TSRA
      BKN030CB=



000
FTUS42 KFFC 192300
TAFMCN
TAF
KMCN 192336Z 2000/2024 14005KT P6SM SCT025 BKN040
     FM200200 25005KT P6SM SCT040 SCT080
     FM200800 VRB03KT 3SM BR SCT012
     FM201400 29007KT P6SM SCT040
     FM201700 28010KT P6SM SCT045
      TEMPO 2018/2022 4SM -TSRA BKN030CB=



000
FTUS42 KFFC 192300
TAFRYY
TAF
KRYY 192336Z 2000/2024 34006KT P6SM SCT035 SCT080
     FM200200 VRB03KT P6SM SCT080
     FM200900 VRB03KT 3SM BR SCT015
     FM201400 29006KT P6SM SCT040
     FM201700 28010KT P6SM SCT045
      TEMPO 2018/2022 4SM -TSRA BKN030CB
      AMD NOT SKED 2004/2012=



000
FTUS42 KFFC 192300
TAFFTY
TAF
KFTY 192336Z 2000/2024 02006KT P6SM SCT045
     FM200200 VRB03KT P6SM SCT080
     FM200900 VRB03KT 4SM BR SCT015
     FM201400 29006KT P6SM SCT040
     FM201700 28010KT P6SM SCT045
      TEMPO 2018/2022 4SM -TSRA BKN030CB=



000
FTUS42 KFFC 192300
TAFCSG
TAF
KCSG 192336Z 2000/2024 24007KT P6SM SCT040 SCT080
     FM200700 VRB03KT 4SM BR SCT012
     FM201400 29007KT P6SM SCT040
     FM201700 28010KT P6SM SCT045
      TEMPO 2018/2022 4SM -TSRA BKN030CB=



000
FTUS42 KFFC 192300
TAFAHN
TAF
KAHN 192336Z 2000/2024 25008KT P6SM SCT080
     FM200800 VRB03KT 3SM BR SCT015
     FM201400 29006KT P6SM SCT040
     FM201700 28010KT P6SM SCT045
      TEMPO 2018/2022 4SM -TSRA BKN030CB=



000
FTUS42 KFFC 192300
TAFPDK
TAF
KPDK 192336Z 2000/2024 02006KT 6SM HZ SCT030 SCT080
     FM200200 VRB03KT P6SM SCT080
     FM200900 VRB03KT 3SM BR SCT015
     FM201400 29006KT P6SM SCT040
     FM201700 28010KT P6SM SCT045
      TEMPO 2018/2022 4SM -TSRA BKN030CB=



000
FTUS42 KFFC 192300
TAFATL
TAF
KATL 192336Z 2000/2106 29007KT P6SM SCT040 BKN100
     FM200200 28004KT P6SM SCT080 SCT250
     FM200900 26004KT P6SM FEW015
     FM201400 28008KT P6SM SCT040
     FM201700 28010KT P6SM SCT045
      TEMPO 2018/2022 4SM -TSRA BKN030CB
     FM210200 29007KT P6SM SCT050=



000
FTUS42 KFFC 192200 AAE
TAFATL
TAF AMD
KATL 192234Z 1923/2024 28010KT P6SM VCSH FEW030 SCT045
      TEMPO 1923/1924 35015G25KT 3SM -TSRA BKN025CB
     FM200000 25008KT P6SM SCT040
     FM200900 26004KT P6SM FEW015
     FM201400 28008KT P6SM SCT040=



000
FTUS42 KFFC 192200 AAA
TAFMCN
TAF AMD
KMCN 192202Z 1922/2018 28011KT P6SM VCSH SCT040
      TEMPO 1922/1924 VRB15G30KT 3SM TSRA BKN025CB
     FM200100 25005KT P6SM FEW100
     FM201100 24003KT 4SM BR FEW015
     FM201500 29007KT P6SM SCT040=



000
FTUS42 KFFC 192100 AAD
TAFATL
TAF AMD
KATL 192156Z 1922/2024 28010KT P6SM VCSH FEW030 SCT045
     FM200000 25008KT P6SM SCT040
     FM200900 26004KT P6SM FEW015
     FM201400 28008KT P6SM SCT040=



000
FTUS42 KFFC 192100 AAC
TAFPDK
TAF AMD
KPDK 192113Z 1921/2018 27010KT P6SM VCSH BKN035
      TEMPO 1921/1923 VRB15G25KT 3SM -TSRA BKN025CB
     FM200000 26007KT P6SM SCT035
     FM200900 26003KT P6SM FEW015
     FM201600 30007KT P6SM SCT040=



000
FTUS42 KFFC 192100 AAC
TAFATL
TAF AMD
KATL 192104Z 1921/2024 28010KT P6SM VCSH BKN040
      TEMPO 1921/1923 VRB15G25KT 3SM -TSRA BKN025CB
     FM200000 25008KT P6SM SCT040
     FM200900 26004KT P6SM FEW015
     FM201400 28008KT P6SM SCT040=



000
FTUS42 KFFC 192000 AAC
TAFFTY
TAF AMD
KFTY 192036Z 1921/2018 28010KT P6SM VCSH BKN035
      TEMPO 1921/1923 VRB15G25KT 4SM -TSRA BKN030CB
     FM200000 25008KT P6SM SCT035
     FM200700 25004KT P6SM FEW015
     FM201500 29006KT P6SM SCT040=



000
FTUS42 KFFC 192000 AAC
TAFRYY
TAF AMD
KRYY 192035Z 1921/2018 28008KT P6SM VCSH BKN035
      TEMPO 1921/1923 VRB12G22KT 4SM -TSRA BKN030CB
     FM200000 27007KT P6SM SCT035
     FM200800 26003KT 6SM BR FEW015
     FM201600 30006KT P6SM SCT040=



000
FTUS42 KFFC 191900 AAB
TAFRYY
TAF AMD
KRYY 191946Z 1920/2018 28008KT P6SM VCSH BKN035
     FM200000 27007KT P6SM SCT035
     FM200800 26003KT 6SM BR FEW015
     FM201600 30006KT P6SM SCT040=



000
FTUS42 KFFC 191900 AAB
TAFPDK
TAF AMD
KPDK 191945Z 1920/2018 27010G16KT P6SM VCSH BKN035
     FM200000 26007KT P6SM SCT035
     FM200900 26003KT P6SM FEW015
     FM201600 30007KT P6SM SCT040=



000
FTUS42 KFFC 191900 AAB
TAFFTY
TAF AMD
KFTY 191944Z 1920/2018 28009G15KT P6SM VCSH BKN035
     FM200000 25008KT P6SM SCT035
     FM200700 25004KT P6SM FEW015
     FM201500 29006KT P6SM SCT040=



000
FTUS42 KFFC 191900 AAB
TAFATL
TAF AMD
KATL 191943Z 1920/2024 28010G20KT P6SM VCSH BKN040
     FM200000 25008KT P6SM SCT040
     FM200900 26004KT P6SM FEW015
     FM201400 28008KT P6SM SCT040=



000
FTUS42 KFFC 191800 AAA
TAFPDK
TAF AMD
KPDK 191814Z 1918/2018 27010G16KT P6SM VCSH BKN030
      TEMPO 1918/1920 5SM SHRA BKN025
     FM192000 26010G16KT P6SM BKN035
     FM200000 26007KT P6SM SCT035
     FM200900 26003KT P6SM FEW015
     FM201600 30007KT P6SM SCT040=



000
FTUS42 KFFC 191800 AAA
TAFRYY
TAF AMD
KRYY 191814Z 1918/2018 28008KT P6SM VCSH BKN030
      TEMPO 1918/1920 5SM SHRA BKN025
     FM192000 27008G13KT P6SM BKN035
     FM200000 27007KT P6SM SCT035
     FM200800 26003KT 6SM BR FEW015
     FM201600 30006KT P6SM SCT040=



000
FTUS42 KFFC 191800 AAA
TAFFTY
TAF AMD
KFTY 191813Z 1918/2018 28009G15KT P6SM VCSH BKN030
      TEMPO 1918/1920 5SM SHRA BKN025
     FM192000 27009G15KT P6SM BKN035
     FM200000 25008KT P6SM SCT035
     FM200700 25004KT P6SM FEW015
     FM201500 29006KT P6SM SCT040=



000
FTUS42 KFFC 191800 AAA
TAFATL
TAF AMD
KATL 191812Z 1918/2024 28010G20KT P6SM VCSH BKN030
      TEMPO 1918/1920 5SM SHRA BKN025
     FM192000 27010G20KT P6SM BKN035
     FM200000 25008KT P6SM SCT040
     FM200900 26004KT P6SM FEW015
     FM201400 28008KT P6SM SCT040=



000
FTUS42 KFFC 191700
TAFPDK
TAF
KPDK 191720Z 1918/2018 27010G16KT P6SM VCSH BKN020
     FM192000 26010G16KT P6SM BKN035
     FM200000 26007KT P6SM SCT035
     FM200900 26003KT P6SM FEW015
     FM201600 30007KT P6SM SCT040=



000
FTUS42 KFFC 191700
TAFCSG
TAF
KCSG 191720Z 1918/2018 28011G18KT P6SM VCSH SCT035
      TEMPO 1918/1922 VRB15G30KT 3SM TSRA BKN025CB
     FM200000 24007KT P6SM SCT035
     FM200700 00000KT P6SM FEW015
     FM201500 27006KT P6SM SCT040=



000
FTUS42 KFFC 191700
TAFMCN
TAF
KMCN 191720Z 1918/2018 28011G18KT P6SM VCSH SCT040
      TEMPO 1918/1922 VRB15G30KT 3SM TSRA BKN025CB
     FM200100 25005KT P6SM FEW100
     FM201100 24003KT 4SM BR FEW015
     FM201500 29007KT P6SM SCT040=



000
FTUS42 KFFC 191700
TAFFTY
TAF
KFTY 191720Z 1918/2018 28009G15KT P6SM VCSH BKN030
     FM192000 27009G15KT P6SM BKN035
     FM200000 25008KT P6SM SCT035
     FM200700 25004KT P6SM FEW015
     FM201500 29006KT P6SM SCT040=



000
FTUS42 KFFC 191700
TAFRYY
TAF
KRYY 191720Z 1918/2018 28008KT P6SM VCSH BKN025
     FM192000 27008G13KT P6SM BKN035
     FM200000 27007KT P6SM SCT035
     FM200800 26003KT 6SM BR FEW015
     FM201600 30006KT P6SM SCT040=



000
FTUS42 KFFC 191700
TAFATL
TAF
KATL 191720Z 1918/2024 28010G20KT P6SM VCSH BKN030
     FM192000 27010G20KT P6SM BKN035
     FM200000 25008KT P6SM SCT040
     FM200900 26004KT P6SM FEW015
     FM201400 28008KT P6SM SCT040=



000
FTUS42 KFFC 191700
TAFAHN
TAF
KAHN 191720Z 1918/2018 27009G15KT P6SM BKN030
     FM192200 26008G13KT P6SM SCT035
     FM200300 25004KT P6SM FEW100
     FM201000 27004KT 4SM BR FEW015
     FM201400 28007KT P6SM SCT040=



000
FTUS42 KFFC 191500 AAB
TAFAHN
TAF AMD
KAHN 191553Z 1916/2012 26005KT P6SM BKN015 OVC025
     FM191700 27009KT P6SM VCSH SCT025 BKN040
     FM200000 27004KT P6SM SCT040 SCT080 SCT250
     FM200900 27004KT 5SM BR FEW010 FEW040=



000
FTUS42 KFFC 191500 AAB
TAFPDK
TAF AMD
KPDK 191551Z 1916/2012 27012G20KT P6SM SCT020 BKN040
      TEMPO 1918/1922 VRB15G30KT 3SM TSRA BKN030CB
     FM200000 27003KT P6SM SCT040 SCT100 SCT250
     FM201000 27003KT 5SM BR SCT015=



000
FTUS42 KFFC 191500 AAB
TAFFTY
TAF AMD
KFTY 191550Z 1916/2012 27012G20KT P6SM SCT025 BKN035
      TEMPO 1918/1922 VRB15G30KT 3SM TSRA BKN030CB
     FM200000 VRB03KT P6SM SCT040 SCT100 SCT250
     FM201000 VRB03KT 5SM BR SCT015=



000
FTUS42 KFFC 191500 AAB
TAFATL
TAF AMD
KATL 191549Z 1916/2018 27012G20KT P6SM SCT025 BKN040
      TEMPO 1918/1922 VRB15G30KT 3SM TSRA BKN030CB
     FM200000 27006KT P6SM SCT040 SCT100 SCT250
     FM201000 28005KT 6SM BR SCT015
     FM201300 30008KT P6SM SCT015 SCT050=



000
FTUS42 KFFC 191300 AAA
TAFCSG
TAF AMD
KCSG 191352Z 1914/2012 29006KT P6SM VCSH SCT008 BKN020
     FM191600 28012G20KT P6SM VCSH SCT025 BKN050
      TEMPO 1918/1922 VRB15G30KT 3SM TSRA BKN035CB
     FM200000 28006KT P6SM SCT060 BKN250
     FM201000 VRB03KT P6SM SCT030=



000
FTUS42 KFFC 191300 AAA
TAFAHN
TAF AMD
KAHN 191351Z 1914/2012 26006KT 6SM -RA BKN007 OVC015
     FM191500 27009KT P6SM SCT025 BKN040
     FM200000 27004KT P6SM SCT040 SCT080 SCT250
     FM200900 27004KT 5SM BR FEW010 FEW040=



000
FTUS42 KFFC 191300 AAA
TAFRYY
TAF AMD
KRYY 191349Z 1914/2012 26008G15KT P6SM VCSH BKN010 BKN025
     FM191500 29009KT 5SM SHRA BKN015
     FM191700 29012G20KT P6SM VCSH SCT025 BKN040
      TEMPO 1918/1922 VRB15G30KT 3SM TSRA BKN030CB
     FM200000 28003KT P6SM SCT040 SCT100 SCT250
     FM201000 28003KT 5SM BR SCT015=



000
FTUS42 KFFC 191300 AAA
TAFATL
TAF AMD
KATL 191349Z 1914/2018 27007KT P6SM VCSH FEW009 SCT020 BKN150
     FM191500 27009KT 5SM SHRA BKN015
     FM191700 27012G20KT P6SM VCSH SCT025 BKN040
      TEMPO 1918/1922 VRB15G30KT 3SM TSRA BKN030CB
     FM200000 27006KT P6SM SCT040 SCT100 SCT250
     FM201000 28005KT 6SM BR SCT015
     FM201300 30008KT P6SM SCT015 SCT050=



000
FTUS42 KFFC 191300 AAA
TAFPDK
TAF AMD
KPDK 191348Z 1914/2012 26008G15KT P6SM VCSH BKN010 BKN025
     FM191500 27010KT 5SM SHRA BKN015
     FM191700 27012G20KT P6SM VCSH SCT025 BKN040
      TEMPO 1918/1922 VRB15G30KT 3SM TSRA BKN030CB
     FM200000 27003KT P6SM SCT040 SCT100 SCT250
     FM201000 27003KT 5SM BR SCT015=



000
FTUS42 KFFC 191300 AAA
TAFFTY
TAF AMD
KFTY 191346Z 1914/2012 24007KT P6SM VCSH SCT020 BKN150
     FM191500 27009KT 5SM SHRA BKN015
     FM191700 27012G20KT P6SM VCSH SCT025 BKN040
      TEMPO 1918/1922 VRB15G30KT 3SM TSRA BKN030CB
     FM200000 VRB03KT P6SM SCT040 SCT100 SCT250
     FM201000 VRB03KT 5SM BR SCT015=



000
FTUS42 KFFC 191100
TAFFTY
TAF
KFTY 191120Z 1912/2012 24008KT P6SM VCSH BKN010 BKN025
     FM191400 27009KT P6SM VCSH SCT010 BKN025
     FM191600 27010KT P6SM VCSH SCT025 BKN040
      TEMPO 1916/1920 VRB15G30KT 5SM TSRA BKN035CB
     FM200000 VRB03KT P6SM SCT040 SCT100 SCT250
     FM201000 VRB03KT 5SM BR SCT015=



000
FTUS42 KFFC 191100
TAFATL
TAF
KATL 191120Z 1912/2018 26008G15KT P6SM VCSH BKN008 BKN025
     FM191400 27010G20KT P6SM VCSH SCT010 BKN025
     FM191600 27012G20KT P6SM VCSH SCT025 BKN040
      TEMPO 1916/1920 VRB15G30KT 3SM TSRA BKN030CB
     FM200000 27006KT P6SM SCT040 SCT100 SCT250
     FM201000 28005KT 6SM BR SCT015
     FM201300 30008KT P6SM SCT015 SCT050=



000
FTUS42 KFFC 191100
TAFCSG
TAF
KCSG 191120Z 1912/2012 27008KT P6SM VCSH SCT010 BKN040
     FM191600 28012G20KT P6SM VCSH SCT025 BKN050
      TEMPO 1916/1920 VRB15G30KT 3SM TSRA BKN035CB
     FM200000 28006KT P6SM SCT060 BKN250
     FM201000 VRB03KT P6SM SCT030=



000
FTUS42 KFFC 191100
TAFAHN
TAF
KAHN 191120Z 1912/2012 25006KT P6SM SCT005 BKN025
      TEMPO 1912/1914 6SM -SHRA BKN005
     FM191400 27008KT P6SM SCT010 BKN025
     FM191600 27009KT P6SM SCT025 BKN040
     FM200000 27004KT P6SM SCT040 SCT080 SCT250
     FM200900 27004KT 5SM BR FEW010 FEW040=



000
FTUS42 KFFC 191100
TAFRYY
TAF
KRYY 191120Z 1912/2012 26008G15KT P6SM VCSH BKN010 BKN025
     FM191400 29010G20KT P6SM VCSH SCT010 BKN025
     FM191600 29010G20KT P6SM VCSH SCT025 BKN040
      TEMPO 1916/1920 VRB15G30KT 5SM TSRA BKN035CB
     FM200000 28005KT P6SM SCT040 SCT100 SCT250
     FM201000 28004KT 5SM BR SCT015=



000
FTUS42 KFFC 191100
TAFMCN
TAF
KMCN 191120Z 1912/2012 26008KT P6SM SCT010 BKN035
     FM191600 27012G20KT P6SM VCSH SCT025 BKN040
      TEMPO 1918/1922 VRB15G30KT 3SM TSRA BKN035CB
     FM200000 27005KT P6SM SCT060 BKN250
     FM200900 27003KT 5SM BR FEW005 FEW040=



000
FTUS42 KFFC 191100
TAFPDK
TAF
KPDK 191120Z 1912/2012 26008G15KT P6SM VCSH BKN010 BKN025
     FM191400 27010G20KT P6SM VCSH SCT010 BKN025
     FM191600 27010G20KT P6SM SCT025 BKN040
      TEMPO 1916/1920 VRB15G30KT 5SM TSRA BKN035CB
     FM200000 27005KT P6SM SCT040 SCT100 SCT250
     FM201000 27004KT 6SM BR SCT015=



000
FTUS42 KFFC 190900 AAB
TAFATL
TAF AMD
KATL 190947Z 1910/2012 24008G15KT P6SM VCSH BKN008 BKN025
     FM191400 26010G20KT P6SM VCSH SCT010 BKN025
     FM191600 27012G20KT P6SM VCSH SCT025 BKN040
      TEMPO 1916/1920 VRB15G30KT 3SM TSRA BKN030CB
     FM200000 27006KT P6SM SCT040 SCT100 SCT250
     FM201000 28005KT 6SM BR SCT015=



000
FTUS42 KFFC 190700 AAA
TAFPDK
TAF AMD
KPDK 190749Z 1908/2006 23006KT P6SM BKN008 OVC015
      TEMPO 1908/1912 6SM BR HZ
     FM191400 28009KT P6SM SCT010 BKN025
     FM191700 27010KT P6SM SCT025 BKN040 PROB30 1917/1923 VRB15G30KT
      5SM TSRA BKN030CB
     FM200000 27005KT P6SM SCT040 SCT100 SCT250=



000
FTUS42 KFFC 190700 AAA
TAFFTY
TAF AMD
KFTY 190749Z 1908/2006 24004KT P6SM BKN008 OVC015
      TEMPO 1909/1913 6SM BR HZ
     FM191400 28009KT P6SM SCT010 BKN025
     FM191700 27010KT P6SM SCT025 BKN040 PROB30 1917/1923 VRB15G30KT
      5SM TSRA BKN030CB
     FM200000 VRB03KT P6SM SCT040 SCT100 SCT250=



000
FTUS42 KFFC 190700 AAA
TAFATL
TAF AMD
KATL 190748Z 1908/2012 25006KT P6SM VCSH BKN008 OVC015
      TEMPO 1910/1913 6SM BR BKN005
     FM191400 27010KT P6SM SCT010 BKN025
     FM191700 27012G20KT P6SM SCT025 BKN040 PROB30 1917/1923
      VRB15G30KT 5SM TSRA BKN030CB
     FM200000 27006KT P6SM SCT040 SCT100 SCT250
     FM201000 28005KT 6SM BR SCT015=



000
FTUS42 KFFC 190500
TAFRYY
TAF
KRYY 190520Z 1906/2006 25004KT P6SM FEW010 SCT070 BKN250
     FM190800 26005KT P6SM BKN006
      TEMPO 1909/1913 6SM BR BKN004
     FM191400 29009KT P6SM SCT010 BKN025
     FM191700 29010KT P6SM SCT025 BKN040 PROB30 1917/1923 VRB15G30KT
      5SM TSRA BKN030CB
     FM200000 28005KT P6SM SCT040 SCT100 SCT250
      AMD NOT SKED TIL 191200=



000
FTUS42 KFFC 190500
TAFAHN
TAF
KAHN 190520Z 1906/2006 24004KT 6SM BR SCT015 BKN250
     FM190800 25006KT 5SM BR SCT005 SCT250
      TEMPO 1909/1913 BKN005
     FM191400 27008KT P6SM SCT010 BKN025
     FM191600 27009KT P6SM SCT025 BKN040 PROB30 1916/1922 VRB15G30KT
      5SM TSRA BKN030CB
     FM200000 27004KT P6SM SCT040 SCT080 SCT250=



000
FTUS42 KFFC 190500
TAFPDK
TAF
KPDK 190520Z 1906/2006 24004KT P6SM FEW005 SCT070 BKN250
     FM190900 25005KT P6SM BKN006
      TEMPO 1910/1913 6SM BR BKN004
     FM191400 28009KT P6SM SCT010 BKN025
     FM191700 27010KT P6SM SCT025 BKN040 PROB30 1917/1923 VRB15G30KT
      5SM TSRA BKN030CB
     FM200000 27005KT P6SM SCT040 SCT100 SCT250=



000
FTUS42 KFFC 190500
TAFATL
TAF
KATL 190520Z 1906/2012 24007KT P6SM SCT005 SCT070 BKN250
     FM190800 25006KT P6SM BKN006
      TEMPO 1909/1913 5SM BR BKN004
     FM191400 27010KT P6SM SCT010 BKN025
     FM191700 27012G20KT P6SM SCT025 BKN040 PROB30 1917/1923
      VRB15G30KT 5SM TSRA BKN030CB
     FM200000 27006KT P6SM SCT040 SCT100 SCT250
     FM201000 28005KT 6SM BR SCT015=



000
FTUS42 KFFC 190500
TAFFTY
TAF
KFTY 190520Z 1906/2006 24003KT P6SM SCT005 SCT070 BKN250
     FM190800 24003KT P6SM BKN006
      TEMPO 1909/1913 6SM BR BKN004
     FM191400 28009KT P6SM SCT010 BKN025
     FM191700 27010KT P6SM SCT025 BKN040 PROB30 1917/1923 VRB15G30KT
      5SM TSRA BKN030CB
     FM200000 VRB03KT P6SM SCT040 SCT100 SCT250=



000
FTUS42 KFFC 190500
TAFCSG
TAF
KCSG 190520Z 1906/2006 25004KT P6SM SCT050 SCT100 BKN250
     FM191000 26004KT P6SM SCT008 SCT050 SCT250
      TEMPO 1910/1914 BKN008
     FM191400 27010KT P6SM SCT010 BKN030
     FM191600 28012G20KT P6SM SCT025 BKN050 PROB30 1916/1921
      VRB15G30KT 5SM TSRA BKN035CB
     FM200000 28006KT P6SM SCT060 BKN250=



000
FTUS42 KFFC 190500
TAFMCN
TAF
KMCN 190520Z 1906/2006 25004KT P6SM FEW050 SCT100 BKN250
     FM191000 25005KT P6SM SCT008 SCT050 SCT250
      TEMPO 1910/1914 BKN008
     FM191400 27009KT P6SM SCT010 BKN030
     FM191600 27012G20KT P6SM SCT025 BKN040 PROB30 1916/1921
      VRB15G30KT 5SM TSRA BKN035CB
     FM200000 27005KT P6SM SCT060 BKN250=



000
FTUS42 KFFC 190300 AAC
TAFATL
TAF AMD
KATL 190345Z 1904/2006 25008KT P6SM BKN070
     FM190900 26006KT 6SM BR SCT006 BKN015
     FM191300 27007KT P6SM SCT025 BKN035
     FM191600 27010G15KT P6SM BKN060 PROB30 1916/1920 5SM TSRA
      BKN035CB
     FM200000 27007KT P6SM SCT070=



000
FTUS42 KFFC 190100 AAA
TAFAHN
TAF AMD
KAHN 190156Z 1902/1924 26006KT P6SM VCSH SCT050
     FM190900 24006KT 5SM BR SCT005 BKN025
     FM191500 28009G15KT P6SM SCT015 BKN035 PROB30 1916/1920 5SM
      TSRA BKN035CB=



000
FTUS42 KFFC 190100 AAB
TAFATL
TAF AMD
KATL 190156Z 1902/2006 25008KT P6SM VCSH BKN070
     FM190900 26006KT 6SM BR SCT006 BKN015
     FM191300 27007KT P6SM SCT025 BKN035
     FM191600 27010G15KT P6SM BKN060 PROB30 1916/1920 5SM TSRA
      BKN035CB
     FM200000 27007KT P6SM SCT070=



000
FTUS42 KFFC 190100 AAA
TAFMCN
TAF AMD
KMCN 190113Z 1901/1924 24015G25KT P6SM VCSH BKN050
     FM190200 25007KT P6SM VCSH BKN050
     FM191000 24006KT P6SM SCT008 BKN025
     FM191400 24006G12KT P6SM SCT012 BKN035 PROB30 1916/1920 5SM
      TSRA BKN035CB=



000
FTUS42 KFFC 190100 AAA
TAFATL
TAF AMD
KATL 190103Z 1901/2006 25008KT P6SM VCSH BKN050
     FM190900 26006KT 6SM BR SCT006 BKN015
     FM191300 27007KT P6SM SCT025 BKN035
     FM191600 27010G15KT P6SM BKN060 PROB30 1916/1920 5SM TSRA
      BKN035CB
     FM200000 27007KT P6SM SCT070=



000
FTUS42 KFFC 190000 AAA
TAFPDK
TAF AMD
KPDK 190042Z 1901/1924 25007KT P6SM VCSH BKN050
     FM190900 26005KT 6SM BR SCT006 OVC012
     FM191300 27007KT P6SM SCT025 BKN035
     FM191600 27010G15KT P6SM BKN060 PROB30 1916/1920 5SM TSRA
      BKN035CB=



000
FTUS42 KFFC 190000 AAA
TAFFTY
TAF AMD
KFTY 190040Z 1901/1924 25007KT P6SM VCSH BKN050
     FM190900 26005KT 6SM BR SCT006 OVC012
     FM191300 27007KT P6SM SCT025 BKN035
     FM191600 27010G15KT P6SM BKN060 PROB30 1916/1920 5SM TSRA
      BKN035CB=



000
FTUS42 KFFC 190000 AAA
TAFCSG
TAF AMD
KCSG 190039Z 1901/1924 27010KT P6SM -RA BKN050
     FM190200 24006KT P6SM VCSH BKN050
     FM190900 25006KT 6SM BR SCT008 OVC025
     FM191400 26008KT P6SM SCT012 BKN035=



000
FTUS42 KFFC 190000 AAA
TAFRYY
TAF AMD
KRYY 190039Z 1901/1924 25007KT P6SM VCSH BKN050
     FM190900 26005KT 6SM BR SCT006 OVC012
     FM191300 27007KT P6SM SCT025 BKN035
     FM191600 27010G15KT P6SM BKN060 PROB30 1916/1920 5SM TSRA
      BKN035CB
      AMD NOT SKED 1904/1912=



000
FTUS42 KFFC 182300
TAFPDK
TAF
KPDK 182335Z 1900/1924 25007KT P6SM VCSH BKN050
      TEMPO 1900/1903 VRB15G30KT 3SM TSRA BKN025CB
     FM190900 26005KT 6SM BR SCT006 OVC012
     FM191300 27007KT P6SM SCT025 BKN035
     FM191600 27010G15KT P6SM BKN060 PROB30 1916/1920 5SM TSRA
      BKN035CB=



000
FTUS42 KFFC 182300
TAFRYY
TAF
KRYY 182335Z 1900/1924 25007KT P6SM VCSH BKN050
      TEMPO 1900/1903 VRB15G30KT 3SM TSRA BKN025CB
     FM190900 26005KT 6SM BR SCT006 OVC012
     FM191300 27007KT P6SM SCT025 BKN035
     FM191600 27010G15KT P6SM BKN060 PROB30 1916/1920 5SM TSRA
      BKN035CB
      AMD NOT SKED 1904/1912=



000
FTUS42 KFFC 182300
TAFATL
TAF
KATL 182335Z 1900/2006 25008KT P6SM VCSH BKN050
      TEMPO 1900/1903 VRB15G30KT 3SM TSRA BKN025CB
     FM190900 26006KT 6SM BR SCT006 BKN015
     FM191300 27007KT P6SM SCT025 BKN035
     FM191600 27010G15KT P6SM BKN060 PROB30 1916/1920 5SM TSRA
      BKN035CB
     FM200000 27007KT P6SM SCT070=



000
FTUS42 KFFC 182300
TAFFTY
TAF
KFTY 182335Z 1900/1924 25007KT P6SM VCSH BKN050
      TEMPO 1900/1903 VRB15G30KT 3SM TSRA BKN025CB
     FM190900 26005KT 6SM BR SCT006 OVC012
     FM191300 27007KT P6SM SCT025 BKN035
     FM191600 27010G15KT P6SM BKN060 PROB30 1916/1920 5SM TSRA
      BKN035CB=



000
FTUS42 KFFC 182300
TAFMCN
TAF
KMCN 182335Z 1900/1924 24007KT P6SM VCSH BKN050
      TEMPO 1900/1904 VRB15G30KT 3SM TSRA BKN025CB
     FM191000 24006KT P6SM SCT008 BKN025
     FM191400 24006G12KT P6SM SCT012 BKN035 PROB30 1916/1920 5SM
      TSRA BKN035CB=



000
FTUS42 KFFC 182300
TAFCSG
TAF
KCSG 182335Z 1900/1924 27010KT P6SM VCSH BKN050
      TEMPO 1900/1901 VRB15G30KT 3SM TSRA BKN025CB
     FM190200 24006KT P6SM VCSH BKN050
     FM190900 25006KT 6SM BR SCT008 OVC025
     FM191400 26008KT P6SM SCT012 BKN035=



000
FTUS42 KFFC 182300
TAFAHN
TAF
KAHN 182335Z 1900/1924 26006KT P6SM VCSH SCT050
      TEMPO 1900/1904 VRB15G30KT 3SM TSRA BKN025CB
     FM190900 24006KT 5SM BR SCT005 BKN025
     FM191500 28009G15KT P6SM SCT015 BKN035 PROB30 1916/1920 5SM
      TSRA BKN035CB=



000
FTUS42 KFFC 182200 AAA
TAFPDK
TAF AMD
KPDK 182252Z 1823/1918 25008KT P6SM VCSH BKN050
      TEMPO 1823/1903 VRB15G30KT 3SM TSRA BKN025CB
     FM190800 25006KT 6SM BR SCT005 BKN012
     FM191400 27009G14KT P6SM SCT012 BKN035=



000
FTUS42 KFFC 182200 AAA
TAFFTY
TAF AMD
KFTY 182252Z 1823/1918 25008KT P6SM VCSH BKN050
      TEMPO 1823/1903 VRB15G30KT 3SM TSRA BKN025CB
     FM190700 26006KT 6SM BR BKN009 OVC012
     FM191400 27007KT P6SM SCT012 BKN035=



000
FTUS42 KFFC 182200 AAA
TAFRYY
TAF AMD
KRYY 182252Z 1823/1918 25008KT P6SM VCSH BKN050
      TEMPO 1823/1903 VRB15G30KT 3SM TSRA BKN025CB
     FM190900 25005KT 6SM BR BKN009 OVC012
     FM191400 27006KT P6SM SCT012 BKN035=



000
FTUS42 KFFC 182200 AAC
TAFATL
TAF AMD
KATL 182251Z 1823/1924 25008KT P6SM VCSH BKN050
      TEMPO 1823/1903 VRB15G30KT 3SM TSRA BKN025CB
     FM190800 26006KT 6SM BR SCT006 BKN012
     FM191400 27007KT P6SM SCT012 BKN035
     FM191900 27010G15KT P6SM BKN050=



000
FTUS42 KFFC 182100 AAB
TAFATL
TAF AMD
KATL 182156Z 1822/1924 26010KT P6SM SCT025 BKN050
     FM190000 25006KT P6SM VCSH BKN050
      TEMPO 1900/1903 VRB15G30KT 3SM TSRA BKN025CB
     FM190800 26006KT 6SM BR SCT006 BKN012
     FM191400 27007KT P6SM SCT012 BKN035
     FM191900 27010G15KT P6SM BKN050=



000
FTUS42 KFFC 182100 AAA
TAFCSG
TAF AMD
KCSG 182134Z 1822/1918 27010KT P6SM BKN035
      TEMPO 1822/1824 VRB15G30KT 3SM TSRA BR BKN025CB
     FM190200 24006KT P6SM VCSH BKN050
     FM190900 25006KT 6SM BR BKN008 OVC012
     FM191400 26008KT P6SM SCT012 BKN035=



000
FTUS42 KFFC 181900 AAA
TAFATL
TAF AMD
KATL 181941Z 1820/1924 26010G20KT P6SM SCT025 BKN050
     FM190100 25006KT P6SM VCSH BKN050
     FM190800 26006KT 6SM BR SCT006 BKN012
     FM191400 27007KT P6SM SCT012 BKN035
     FM191900 27010G15KT P6SM BKN050=



000
FTUS42 KFFC 181700
TAFRYY
TAF
KRYY 181727Z 1818/1918 26010G16KT P6SM SCT025 BKN050
     FM190100 25006KT P6SM VCSH BKN050
     FM190900 25005KT 6SM BR BKN009 OVC012
     FM191400 27006KT P6SM SCT012 BKN035=



000
FTUS42 KFFC 181700
TAFPDK
TAF
KPDK 181727Z 1818/1918 26012G22KT P6SM BKN020 OVC050
     FM182000 26012G22KT P6SM SCT025 BKN050
     FM190100 26006KT P6SM VCSH BKN045
     FM190800 25006KT 6SM BR SCT005 BKN012
     FM191400 27009G14KT P6SM SCT012 BKN035=



000
FTUS42 KFFC 181700
TAFCSG
TAF
KCSG 181727Z 1818/1918 27012G20KT P6SM BKN035
      TEMPO 1818/1822 VRB15G30KT 3SM TSRA BR BKN025CB
     FM190200 24006KT P6SM VCSH BKN050
     FM190900 25006KT 6SM BR BKN008 OVC012
     FM191400 26008KT P6SM SCT012 BKN035=



000
FTUS42 KFFC 181700
TAFFTY
TAF
KFTY 181727Z 1818/1918 26011G18KT P6SM SCT025 BKN050
      TEMPO 1818/1822 VRB15G25KT 3SM TSRA BR BKN025CB
     FM190000 25007KT P6SM VCSH BKN050
     FM190700 26006KT 6SM BR BKN009 OVC012
     FM191400 27007KT P6SM SCT012 BKN035=



000
FTUS42 KFFC 181700
TAFATL
TAF
KATL 181727Z 1818/1924 30012G22KT P6SM VCSH SCT025 BKN050
      TEMPO 1818/1822 VRB15G25KT 3SM TSRA BR BKN025CB
     FM182200 26010G21KT P6SM SCT035 BKN050
     FM190100 25006KT P6SM VCSH BKN050
     FM190800 26006KT 6SM BR SCT006 BKN012
     FM191400 27007KT P6SM SCT012 BKN035
     FM191900 27010G15KT P6SM BKN050=



000
FTUS42 KFFC 181700
TAFMCN
TAF
KMCN 181727Z 1818/1918 27011G18KT P6SM BKN035
      TEMPO 1819/1823 VRB15G30KT 3SM TSRA BR BKN025CB
     FM190200 24007KT P6SM VCSH BKN050
     FM190900 24006KT P6SM BKN008 BKN012
     FM191500 24006G12KT P6SM SCT012 BKN035=



000
FTUS42 KFFC 181700
TAFAHN
TAF
KAHN 181727Z 1818/1918 26011G17KT P6SM VCSH SCT025 BKN050
     FM182000 25010G18KT P6SM SCT025 BKN050
     FM190200 26006KT P6SM VCSH SCT050
     FM190900 24006KT 5SM BR SCT005 BKN025
     FM191500 28009G15KT P6SM SCT015 BKN035=



000
FTUS42 KFFC 181500 AAB
TAFFTY
TAF AMD
KFTY 181547Z 1816/1912 29010KT P6SM VCSH BKN025 OVC050
      TEMPO 1816/1820 VRB15G30KT 3SM TSRA BR BKN020CB
     FM182000 27010G20KT P6SM VCSH SCT035 BKN050
     FM190200 VRB03KT P6SM VCSH SCT035 BKN050 PROB30 1906/1912 4SM
      SHRA SCT005 BKN035=



000
FTUS42 KFFC 181500 AAB
TAFATL
TAF AMD
KATL 181546Z 1816/1918 30010G20KT P6SM VCSH FEW025 SCT050
      TEMPO 1816/1820 VRB15G25KT 3SM TSRA BR BKN025CB
     FM182000 30012G22KT P6SM VCSH SCT035 BKN050
     FM190200 26006KT P6SM VCSH SCT035 BKN050 PROB30 1906/1912 4SM
      SHRA SCT005 BKN035
     FM191200 27008KT P6SM SCT005 BKN025=



000
FTUS42 KFFC 181400 AAA
TAFCSG
TAF AMD
KCSG 181414Z 1814/1912 27010KT P6SM FEW012 SCT025 BKN040
     FM181800 27012G20KT P6SM SCT035 BKN050
      TEMPO 1818/1822 VRB15G30KT 3SM TSRA BKN035CB
     FM190000 27007KT P6SM SCT035 BKN060 PROB30 1900/1906 4SM TSRA
      SCT005 BKN035CB=



000
FTUS42 KFFC 181300 AAA
TAFRYY
TAF AMD
KRYY 181357Z 1814/1912 30010KT P6SM BKN015 BKN110
     FM181500 27008KT P6SM SCT010 SCT025 BKN050
     FM181800 27010G20KT P6SM VCSH SCT035 BKN050
      TEMPO 1818/1822 VRB15G30KT 3SM TSRA BKN035CB
     FM190200 27005KT P6SM VCSH SCT035 BKN050 PROB30 1906/1912 4SM
      SHRA SCT005 BKN035=



000
FTUS42 KFFC 181300 AAA
TAFFTY
TAF AMD
KFTY 181357Z 1814/1912 21004KT P6SM BKN010 BKN100
     FM181500 26008KT P6SM SCT010 SCT025 BKN050
     FM181800 27010G20KT P6SM VCSH SCT035 BKN050
      TEMPO 1818/1822 VRB15G30KT 3SM TSRA BKN035CB
     FM190200 VRB03KT P6SM VCSH SCT035 BKN050 PROB30 1906/1912 4SM
      SHRA SCT005 BKN035=



000
FTUS42 KFFC 181300 AAA
TAFATL
TAF AMD
KATL 181346Z 1814/1918 26007KT P6SM FEW015 SCT080
     FM181500 27010G20KT P6SM FEW025 SCT050
     FM181800 27012G22KT P6SM VCSH SCT035 BKN050
      TEMPO 1818/1822 VRB15G30KT 3SM TSRA BKN035CB
     FM190200 26006KT P6SM VCSH SCT035 BKN050 PROB30 1906/1912 4SM
      SHRA SCT005 BKN035
     FM191200 27008KT P6SM SCT005 BKN025=



000
FTUS42 KFFC 181300 AAA
TAFMCN
TAF AMD
KMCN 181327Z 1813/1912 29008KT P6SM SCT012
     FM181500 27010KT P6SM SCT010 SCT025 BKN050
     FM181800 27012G20KT P6SM VCSH SCT035 BKN050
      TEMPO 1821/1824 VRB15G30KT 3SM TSRA BKN035CB
     FM190000 26005KT P6SM VCSH SCT040 BKN060 PROB30 1900/1903 4SM
      TSRA BKN035CB=



000
FTUS42 KFFC 181200 AAA
TAFAHN
TAF AMD
KAHN 181248Z 1813/1912 24005KT 6SM BR SCT005
     FM181500 26008KT P6SM SCT010 SCT025 BKN050
     FM181800 27010G20KT P6SM SCT035 BKN050
      TEMPO 1818/1822 VRB15G30KT 3SM TSRA BKN035CB
     FM190100 VRB03KT P6SM SCT050 BKN100 PROB30 1906/1912 4SM SHRA
      SCT005 BKN035=



000
FTUS42 KFFC 181100
TAFAHN
TAF
KAHN 181120Z 1812/1912 24005KT 6SM BR BKN005
     FM181500 26008KT P6SM SCT010 SCT025 BKN050
     FM181800 27010G20KT P6SM SCT035 BKN050
      TEMPO 1818/1822 VRB15G30KT 3SM TSRA BKN035CB
     FM190100 VRB03KT P6SM SCT050 BKN100 PROB30 1906/1912 4SM SHRA
      SCT005 BKN035=



000
FTUS42 KFFC 181100
TAFFTY
TAF
KFTY 181120Z 1812/1912 25005KT P6SM OVC005
     FM181500 26008KT P6SM SCT010 SCT025 BKN050
     FM181800 27010G20KT P6SM VCSH SCT035 BKN050
      TEMPO 1818/1822 VRB15G30KT 3SM TSRA BKN035CB
     FM190200 VRB03KT P6SM VCSH SCT035 BKN050 PROB30 1906/1912 4SM
      SHRA SCT005 BKN035=



000
FTUS42 KFFC 181100
TAFRYY
TAF
KRYY 181120Z 1812/1912 27005KT P6SM SCT005 BKN080
     FM181500 27008KT P6SM SCT010 SCT025 BKN050
     FM181800 27010G20KT P6SM VCSH SCT035 BKN050
      TEMPO 1818/1822 VRB15G30KT 3SM TSRA BKN035CB
     FM190200 27005KT P6SM VCSH SCT035 BKN050 PROB30 1906/1912 4SM
      SHRA SCT005 BKN035=



000
FTUS42 KFFC 181100
TAFMCN
TAF
KMCN 181120Z 1812/1912 25005KT P6SM BKN008
     FM181500 27010KT P6SM SCT010 SCT025 BKN050
     FM181800 27012G20KT P6SM VCSH SCT035 BKN050 PROB30 1821/1824
      VRB15G30KT 3SM TSRA BKN035CB
     FM190000 26005KT P6SM VCSH SCT040 BKN060 PROB30 1900/1903 4SM
      TSRA BKN035CB=



000
FTUS42 KFFC 181100
TAFPDK
TAF
KPDK 181120Z 1812/1912 25005KT P6SM BKN005
     FM181500 26008KT P6SM SCT010 SCT025 BKN050
     FM181800 26012G22KT P6SM VCSH SCT035 BKN050
      TEMPO 1818/1822 VRB15G30KT 3SM TSRA BKN035CB
     FM190200 25004KT P6SM VCSH SCT035 BKN050 PROB30 1906/1912 4SM
      SHRA SCT005 BKN035=



000
FTUS42 KFFC 181100
TAFCSG
TAF
KCSG 181120Z 1812/1912 26005KT P6SM BKN006
     FM181500 27010KT P6SM SCT010 SCT025 BKN040
     FM181800 27012G20KT P6SM SCT035 BKN050
      TEMPO 1818/1822 VRB15G30KT 3SM TSRA BKN035CB
     FM190000 27007KT P6SM SCT035 BKN060 PROB30 1900/1906 4SM TSRA
      SCT005 BKN035CB=



000
FTUS42 KFFC 181100
TAFATL
TAF
KATL 181120Z 1812/1918 26006KT 6SM BR OVC004
     FM181400 27008KT P6SM BKN006
     FM181500 27010G20KT P6SM SCT010 SCT025 BKN050
     FM181800 27012G22KT P6SM VCSH SCT035 BKN050
      TEMPO 1818/1822 VRB15G30KT 3SM TSRA BKN035CB
     FM190200 26006KT P6SM VCSH SCT035 BKN050 PROB30 1906/1912 4SM
      SHRA SCT005 BKN035
     FM191200 27008KT P6SM SCT005 BKN025=



000
FTUS42 KFFC 181000 AAA
TAFAHN
TAF AMD
KAHN 181052Z 1811/1906 23005KT 5SM BR BKN003
     FM181500 26008KT P6SM SCT010 SCT025 BKN050
     FM181800 27010G20KT P6SM SCT035 BKN050
      TEMPO 1818/1822 VRB15G30KT 3SM TSRA BKN035CB
     FM190100 VRB03KT P6SM SCT050 BKN100=



000
FTUS42 KFFC 180900 AAC
TAFATL
TAF AMD
KATL 180950Z 1810/1912 26006KT P6SM OVC004
      TEMPO 1810/1813 6SM BR
     FM181500 27010G20KT P6SM SCT010 SCT025 BKN050
     FM181800 27012G22KT P6SM VCSH SCT035 BKN050
      TEMPO 1818/1822 VRB15G30KT 3SM TSRA BKN035CB
     FM190200 26006KT P6SM VCSH SCT035 BKN050 PROB30 1906/1912 4SM
      SHRA SCT005 BKN035=



000
FTUS42 KFFC 180900 AAA
TAFPDK
TAF AMD
KPDK 180902Z 1809/1906 23004KT P6SM SCT005 BKN120
     FM181000 24004KT 4SM BR OVC005
     FM181500 26008KT P6SM SCT025 BKN050
     FM181800 26012G22KT P6SM VCSH SCT035 BKN050 PROB30 1820/1902
      4SM TSRA BKN035CB
     FM190200 VRB03KT P6SM VCSH SCT035 BKN050=



000
FTUS42 KFFC 180800 AAA
TAFFTY
TAF AMD
KFTY 180856Z 1809/1906 23004KT P6SM BKN005
     FM181000 24004KT 5SM BR OVC005
     FM181500 26008KT P6SM SCT025 BKN050
     FM181800 27010G20KT P6SM VCSH SCT035 BKN050 PROB30 1820/1902
      4SM TSRA BKN035CB
     FM190200 VRB03KT P6SM VCSH SCT035 BKN050=



000
FTUS42 KFFC 180800 AAB
TAFATL
TAF AMD
KATL 180855Z 1809/1912 25005KT 6SM BR BKN005
     FM181000 25005KT 3SM BR OVC004
     FM181500 27010KT P6SM SCT025 BKN050
     FM181800 27012G22KT P6SM VCSH SCT035 BKN050 PROB30 1820/1902
      4SM TSRA BKN035CB
     FM190200 26006KT P6SM VCSH SCT035 BKN050 PROB30 1906/1912 4SM
      TSRA SCT010 BKN035CB=



000
FTUS42 KFFC 180700 AAA
TAFATL
TAF AMD
KATL 180739Z 1808/1912 25005KT P6SM SCT005 BKN100
     FM181000 25005KT P6SM BKN004
     FM181500 27010KT P6SM SCT025 BKN050
     FM181800 27012G22KT P6SM VCSH SCT035 BKN050 PROB30 1820/1902
      4SM TSRA BKN035CB
     FM190200 26006KT P6SM VCSH SCT035 BKN050 PROB30 1906/1912 4SM
      TSRA SCT010 BKN035CB=



000
FTUS42 KFFC 180500
TAFAHN
TAF
KAHN 180520Z 1806/1906 VRB03KT P6SM FEW060 SCT120 BKN200
      TEMPO 1806/1810 3SM BR
     FM181000 24003KT 3SM BR SCT005 BKN100
     FM181500 26008KT P6SM SCT025 BKN050
     FM181800 27010G20KT P6SM SCT035 BKN050 PROB30 1819/1901 4SM
      TSRA BKN035CB
     FM190100 VRB03KT P6SM SCT050 BKN100=



000
FTUS42 KFFC 180500
TAFFTY
TAF
KFTY 180520Z 1806/1906 VRB03KT P6SM SCT050 BKN120
     FM181000 24003KT P6SM BKN010 BKN080
     FM181500 26008KT P6SM SCT025 BKN050
     FM181800 27010G20KT P6SM VCSH SCT035 BKN050 PROB30 1820/1902
      4SM TSRA BKN035CB
     FM190200 VRB03KT P6SM VCSH SCT035 BKN050=



000
FTUS42 KFFC 180500
TAFATL
TAF
KATL 180520Z 1806/1912 24005KT P6SM SCT050 BKN120
     FM181000 25005KT P6SM BKN010 BKN080
     FM181500 27010KT P6SM SCT025 BKN050
     FM181800 27012G22KT P6SM VCSH SCT035 BKN050 PROB30 1820/1902
      4SM TSRA BKN035CB
     FM190200 26006KT P6SM VCSH SCT035 BKN050 PROB30 1906/1912 4SM
      TSRA SCT010 BKN035CB=



000
FTUS42 KFFC 180500
TAFMCN
TAF
KMCN 180520Z 1806/1906 VRB03KT P6SM SCT250
     FM181000 26003KT 4SM BR BKN010
     FM181500 27008KT P6SM SCT025 BKN050
     FM181800 27012G20KT P6SM SCT035 BKN050 PROB30 1818/1824 4SM
      TSRA BKN035CB
     FM190000 26006KT P6SM VCSH SCT040 BKN060=



000
FTUS42 KFFC 180500
TAFPDK
TAF
KPDK 180520Z 1806/1906 VRB03KT P6SM SCT050 BKN120
     FM181000 25004KT P6SM BKN010 BKN080
     FM181500 26008KT P6SM SCT025 BKN050
     FM181800 26012G22KT P6SM VCSH SCT035 BKN050 PROB30 1820/1902
      4SM TSRA BKN035CB
     FM190200 VRB03KT P6SM VCSH SCT035 BKN050=



000
FTUS42 KFFC 180500
TAFRYY
TAF
KRYY 180520Z 1806/1906 VRB03KT P6SM SCT050 BKN120
     FM181000 26005KT P6SM BKN010 BKN080
     FM181500 27008KT P6SM SCT025 BKN050
     FM181800 27010G20KT P6SM VCSH SCT035 BKN050 PROB30 1819/1901
      4SM TSRA BKN035CB
     FM190200 VRB03KT P6SM VCSH SCT035 BKN050
      AMD NOT SKED TIL 181200=



000
FTUS42 KFFC 180500
TAFCSG
TAF
KCSG 180520Z 1806/1906 VRB03KT P6SM SCT025 SCT250
     FM180900 25003KT 4SM BR BKN015
     FM181500 27008KT P6SM SCT025 BKN040
     FM181800 27012G20KT P6SM SCT035 BKN050 PROB30 1818/1824 4SM
      TSRA BKN035CB
     FM190000 27007KT P6SM VCSH SCT035 BKN060=



000
FTUS42 KFFC 180300 AAA
TAFCSG
TAF AMD
KCSG 180345Z 1804/1824 VRB03KT P6SM BKN025 BKN120
     FM180800 00000KT 4SM BR BKN012
     FM181500 26008KT P6SM SCT025 BKN060
     FM181800 27012KT P6SM SCT035 BKN050 PROB30 1818/1824 4SM -TSRA
      BR BKN030CB=



000
FTUS42 KFFC 180300 AAB
TAFATL
TAF AMD
KATL 180343Z 1804/1906 24005KT P6SM FEW070 BKN120
     FM181100 25005KT P6SM BKN015 BKN080
     FM181500 26010KT P6SM SCT025 BKN060
     FM181800 27012KT P6SM SCT035 BKN050 PROB30 1818/1824 4SM -TSRA
      BR BKN035CB=



000
FTUS42 KFFC 180100 AAA
TAFATL
TAF AMD
KATL 180156Z 1802/1906 24006KT P6SM SCT070 BKN250
     FM181100 25005KT P6SM BKN015 BKN080
     FM181500 26010KT P6SM SCT025 BKN060
     FM181800 27012KT P6SM SCT035 BKN050 PROB30 1818/1824 4SM -TSRA
      BR BKN030CB
     FM190000 26007KT P6SM SCT040 SCT080=



000
FTUS42 KFFC 172300
TAFATL
TAF
KATL 172332Z 1800/1906 23010KT P6SM VCSH SCT050 BKN100
     FM180100 24006KT P6SM SCT070 BKN250
     FM181100 25005KT P6SM BKN015 BKN080
     FM181500 26010KT P6SM SCT025 BKN060
     FM181800 27012KT P6SM SCT035 BKN050 PROB30 1818/1824 4SM -TSRA
      BR BKN030CB
     FM190000 26007KT P6SM SCT040 SCT080=



000
FTUS42 KFFC 172300
TAFRYY
TAF
KRYY 172332Z 1800/1824 23006KT P6SM VCSH SCT050 BKN100
     FM180100 24004KT P6SM SCT070 BKN250
     FM181100 VRB03KT P6SM BKN015 BKN080
     FM181500 26008KT P6SM SCT025 BKN060
     FM181800 27012KT P6SM SCT035 BKN050 PROB30 1818/1824 4SM -TSRA
      BR BKN030CB
      AMD NOT SKED 1804/1812=



000
FTUS42 KFFC 172300
TAFMCN
TAF
KMCN 172332Z 1800/1824 23008KT P6SM VCSH SCT050
     FM180200 VRB03KT P6SM SCT060 SCT120
     FM180900 00000KT 4SM BR BKN012
     FM181500 26008KT P6SM SCT025 BKN060
     FM181800 27012KT P6SM SCT035 BKN050 PROB30 1818/1824 4SM -TSRA
      BR BKN030CB=



000
FTUS42 KFFC 172300
TAFCSG
TAF
KCSG 172332Z 1800/1824 27007KT P6SM VCSH BKN050
     FM180200 VRB03KT P6SM SCT060 SCT120
     FM180900 00000KT 4SM BR BKN012
     FM181500 26008KT P6SM SCT025 BKN060
     FM181800 27012KT P6SM SCT035 BKN050 PROB30 1818/1824 4SM -TSRA
      BR BKN030CB=



000
FTUS42 KFFC 172300
TAFPDK
TAF
KPDK 172332Z 1800/1824 23005KT P6SM VCSH SCT050 BKN100
     FM180100 24004KT P6SM SCT070 BKN250
     FM181100 VRB03KT P6SM BKN015 BKN080
     FM181500 26008KT P6SM SCT025 BKN060
     FM181800 27012KT P6SM SCT035 BKN050 PROB30 1818/1824 4SM -TSRA
      BR BKN030CB=



000
FTUS42 KFFC 172300
TAFAHN
TAF
KAHN 172332Z 1800/1824 23007KT 6SM BR SCT045 BKN100
     FM180100 24004KT P6SM SCT060 BKN120
     FM181100 VRB03KT 3SM BR BKN012 BKN080
     FM181500 26008KT P6SM SCT025 BKN060
     FM181800 27012KT P6SM SCT035 BKN050 PROB30 1818/1824 4SM -TSRA
      BR BKN030CB=



000
FTUS42 KFFC 172300
TAFFTY
TAF
KFTY 172332Z 1800/1824 23005KT P6SM VCSH SCT050 SCT100
     FM180100 24004KT P6SM SCT070 BKN250
     FM181100 VRB03KT P6SM BKN015 BKN080
     FM181500 26008KT P6SM SCT025 BKN060
     FM181800 27012KT P6SM SCT035 BKN050 PROB30 1818/1824 4SM -TSRA
      BR BKN030CB=



000
FTUS42 KFFC 172200 AAA
TAFAHN
TAF AMD
KAHN 172227Z 1722/1818 23007KT P6SM VCSH SCT050
      TEMPO 1722/1724 VRB15G25KT 5SM -TSRA BR BKN030CB
     FM180100 24004KT P6SM SCT060 BKN120
     FM181100 25002KT 4SM BR BKN015 BKN080
     FM181500 26008KT P6SM SCT025 BKN060=



000
FTUS42 KFFC 172200 AAB
TAFFTY
TAF AMD
KFTY 172208Z 1722/1818 23007KT P6SM VCSH SCT050
      TEMPO 1722/1724 5SM -TSRA BR BKN030CB
     FM180100 24004KT P6SM SCT070 BKN120
     FM181100 25002KT P6SM BKN015 BKN080
     FM181500 26008KT P6SM SCT025 BKN060=



000
FTUS42 KFFC 172200 AAA
TAFRYY
TAF AMD
KRYY 172205Z 1722/1818 23010KT P6SM VCSH SCT050
      TEMPO 1722/1724 5SM -TSRA BR BKN030CB
     FM180100 24004KT P6SM SCT070 BKN120
     FM181100 25002KT P6SM BKN015 BKN080
     FM181500 26008KT P6SM SCT025 BKN060=



000
FTUS42 KFFC 172100 AAC
TAFATL
TAF AMD
KATL 172155Z 1722/1824 25008KT P6SM VCSH SCT050 BKN100
     FM180100 24005KT P6SM SCT070 BKN120
     FM181100 25005KT P6SM BKN015 BKN080
     FM181500 26010KT P6SM SCT025 BKN060
     FM181800 27012KT P6SM SCT035 BKN050 PROB30 1818/1824 4SM -TSRA
      BR BKN035CB=



000
FTUS42 KFFC 172000 AAA
TAFPDK
TAF AMD
KPDK 172043Z 1721/1818 23007KT P6SM VCSH SCT050 BKN100
      TEMPO 1721/1723 VRB15G25KT 5SM -TSRA BR BKN030CB
     FM180100 24004KT P6SM SCT070 BKN120
     FM181100 25002KT P6SM BKN015 BKN080
     FM181500 26008KT P6SM SCT025 BKN060=



000
FTUS42 KFFC 171900 AAB
TAFCSG
TAF AMD
KCSG 171950Z 1720/1818 27007KT P6SM VCSH BKN050
      TEMPO 1720/1723 VRB15G25KT 3SM TSRA BR BKN035CB
     FM180200 00000KT P6SM SCT060 SCT120
     FM180900 00000KT 6SM BR BKN012
     FM181500 26008KT P6SM SCT025 BKN060=



000
FTUS42 KFFC 171900 AAB
TAFATL
TAF AMD
KATL 171946Z 1720/1824 23008KT P6SM VCSH SCT050
      TEMPO 1720/1722 25015G25KT 5SM -TSRA BR BKN040CB
     FM180100 24005KT P6SM SCT070 BKN120
     FM181100 25005KT P6SM BKN015 BKN080
     FM181500 26010KT P6SM SCT025 BKN060
     FM181800 27012KT P6SM SCT035 BKN050 PROB30 1818/1824 4SM -TSRA
      BR BKN035CB=



000
FTUS42 KFFC 171900 AAA
TAFCSG
TAF AMD
KCSG 171937Z 1720/1818 25007KT P6SM VCSH BKN050
      TEMPO 1720/1723 5SM -TSRA BR BKN035CB
     FM180200 00000KT P6SM SCT060 SCT120
     FM180900 00000KT 6SM BR BKN012
     FM181500 26008KT P6SM SCT025 BKN060=



000
FTUS42 KFFC 171900 AAA
TAFMCN
TAF AMD
KMCN 171936Z 1720/1818 23008KT P6SM SCT050
      TEMPO 1721/1724 5SM -TSRA BR BKN040CB
     FM180200 00000KT P6SM SCT060 SCT120
     FM180900 00000KT 6SM BR BKN012
     FM181500 26008KT P6SM SCT025 BKN060=



000
FTUS42 KFFC 171900 AAA
TAFATL
TAF AMD
KATL 171935Z 1720/1824 22008KT P6SM VCSH SCT050
      TEMPO 1720/1722 5SM -TSRA BR BKN040CB
     FM180100 24005KT P6SM SCT070 BKN120
     FM181100 25005KT P6SM BKN015 BKN080
     FM181500 26010KT P6SM SCT025 BKN060
     FM181800 27012KT P6SM SCT035 BKN050 PROB30 1818/1824 4SM -TSRA
      BR BKN035CB=



000
FTUS42 KFFC 171900 AAA
TAFFTY
TAF AMD
KFTY 171935Z 1720/1818 23007KT P6SM VCSH SCT050
      TEMPO 1720/1722 5SM -TSRA BR BKN040CB
     FM180100 24004KT P6SM SCT070 BKN120
     FM181100 25002KT P6SM BKN015 BKN080
     FM181500 26008KT P6SM SCT025 BKN060=



000
FTUS42 KFFC 171700
TAFPDK
TAF
KPDK 171723Z 1718/1818 23007KT P6SM VCSH SCT050
      TEMPO 1718/1722 5SM -SHRA BR BKN040
     FM180100 24004KT P6SM SCT070 BKN120
     FM181100 25002KT P6SM BKN015 BKN080
     FM181500 26008KT P6SM SCT025 BKN060=



000
FTUS42 KFFC 171700
TAFRYY
TAF
KRYY 171723Z 1718/1818 23007KT P6SM VCSH SCT050
      TEMPO 1718/1722 5SM -SHRA BR BKN040
     FM180100 24004KT P6SM SCT070 BKN120
     FM181100 25002KT P6SM BKN015 BKN080
     FM181500 26008KT P6SM SCT025 BKN060=



000
FTUS42 KFFC 171700
TAFATL
TAF
KATL 171723Z 1718/1824 24008KT P6SM VCSH SCT050
      TEMPO 1718/1722 5SM -SHRA BR BKN040
     FM180100 24005KT P6SM SCT070 BKN120
     FM181100 25005KT P6SM BKN015 BKN080
     FM181500 26010KT P6SM SCT025 BKN060
     FM181800 27012KT P6SM SCT035 BKN050 PROB30 1818/1824 4SM -TSRA
      BR BKN035CB=



000
FTUS42 KFFC 171700
TAFAHN
TAF
KAHN 171723Z 1718/1818 23007KT P6SM VCSH SCT050
      TEMPO 1719/1723 5SM -SHRA BR BKN040
     FM180100 24004KT P6SM SCT060 BKN120
     FM181100 25002KT 4SM BR BKN015 BKN080
     FM181500 26008KT P6SM SCT025 BKN060=



000
FTUS42 KFFC 171700
TAFCSG
TAF
KCSG 171723Z 1718/1818 24008KT P6SM VCSH SCT050
      TEMPO 1718/1722 5SM -TSRA BR BKN035CB
     FM180200 00000KT P6SM SCT060 SCT120
     FM180900 00000KT 6SM BR BKN012
     FM181500 26008KT P6SM SCT025 BKN060=



000
FTUS42 KFFC 171700
TAFFTY
TAF
KFTY 171723Z 1718/1818 23007KT P6SM VCSH SCT050
      TEMPO 1718/1722 5SM -SHRA BR BKN040
     FM180100 24004KT P6SM SCT070 BKN120
     FM181100 25002KT P6SM BKN015 BKN080
     FM181500 26008KT P6SM SCT025 BKN060=



000
FTUS42 KFFC 171700
TAFMCN
TAF
KMCN 171723Z 1718/1818 24008KT P6SM VCSH SCT050
      TEMPO 1718/1722 5SM -TSRA BR BKN035CB
     FM180200 00000KT P6SM SCT060 SCT120
     FM180900 00000KT 6SM BR BKN012
     FM181500 26008KT P6SM SCT025 BKN060=



000
FTUS42 KFFC 171600 AAB
TAFCSG
TAF AMD
KCSG 171630Z 1717/1812 25007KT P6SM VCSH SCT035
      TEMPO 1718/1722 5SM -TSRA BR BKN025CB
     FM172200 26007KT P6SM VCSH SCT050
     FM180200 00000KT P6SM FEW060 SCT120
     FM180900 00000KT 6SM BR BKN012=



000
FTUS42 KFFC 171600 AAB
TAFATL
TAF AMD
KATL 171600Z 1716/1818 23009KT P6SM SCT050
     FM172000 23008KT P6SM VCSH SCT060
     FM180200 24005KT P6SM SCT070 BKN120
     FM181100 25004KT P6SM BKN015 BKN080
     FM181500 27010KT P6SM SCT025 BKN050=



000
FTUS42 KFFC 171400 AAA
TAFATL
TAF AMD
KATL 171402Z 1714/1818 25005KT P6SM FEW030 SCT070
     FM171700 25008KT P6SM SCT050
     FM180100 24005KT P6SM SCT250
     FM181000 25004KT P6SM SCT015 BKN080
     FM181500 27010KT P6SM SCT025 BKN050=



000
FTUS42 KFFC 171300 AAA
TAFCSG
TAF AMD
KCSG 171318Z 1713/1812 00000KT P6SM SCT015
      TEMPO 1713/1715 BKN015
     FM171500 25005KT P6SM SCT035
     FM171800 26007KT P6SM SCT050
     FM180200 00000KT P6SM SCT250
     FM180600 00000KT P6SM SCT020=



000
FTUS42 KFFC 171100
TAFMCN
TAF
KMCN 171126Z 1712/1812 00000KT P6SM FEW250
     FM171500 26006KT P6SM SCT040
     FM180200 00000KT P6SM SCT250
     FM180700 00000KT P6SM SCT020=



000
FTUS42 KFFC 171100
TAFRYY
TAF
KRYY 171126Z 1712/1812 00000KT P6SM SCT070
     FM171500 26005KT P6SM SCT040
     FM172000 24005KT P6SM BKN050
     FM180200 00000KT P6SM VCSH BKN050
     FM180900 00000KT P6SM BKN015=



000
FTUS42 KFFC 171100
TAFAHN
TAF
KAHN 171126Z 1712/1812 00000KT P6SM FEW250
     FM171500 26006KT P6SM SCT040
     FM180200 00000KT P6SM SCT250
     FM181000 00000KT 5SM BR SCT080=



000
FTUS42 KFFC 171100
TAFCSG
TAF
KCSG 171126Z 1712/1812 00000KT P6SM FEW250
     FM171500 26007KT P6SM SCT050
     FM180200 00000KT P6SM SCT250
     FM180600 00000KT P6SM SCT020=



000
FTUS42 KFFC 171100
TAFFTY
TAF
KFTY 171126Z 1712/1812 00000KT P6SM SCT070
     FM171500 26006KT P6SM SCT040
     FM180200 00000KT P6SM SCT050
     FM180900 00000KT P6SM SCT015=



000
FTUS42 KFFC 171100
TAFPDK
TAF
KPDK 171126Z 1712/1812 00000KT P6SM SCT070
     FM171500 26005KT P6SM SCT040
     FM180200 00000KT P6SM SCT050
     FM181000 00000KT P6SM SCT015=



000
FTUS42 KFFC 171100
TAFATL
TAF
KATL 171126Z 1712/1818 22003KT P6SM FEW070
     FM171500 26006KT P6SM FEW040
     FM171800 25008KT P6SM SCT050
     FM180200 24005KT P6SM SCT250
     FM181000 25004KT P6SM SCT015 BKN080
     FM181500 27010KT P6SM SCT025 BKN050=



    US Dept of Commerce
    National Oceanic and Atmospheric Administration
    National Weather Service
    1325 East West Highway
    Silver Spring, MD 20910
    Page Author: NWS Internet Services Team
Disclaimer
Information Quality
Credits
Glossary
Privacy Policy
Freedom of Information Act (FOIA)
About Us
Career Opportunities